Time;durP1;ratioP1;P1;durP2;ratioP2;P2;SDS_P1;SDS_P2;PMS_P1;PMS_P2;Temp;Humidity;BMP_temperature;BMP_pressure;BME280_temperature;BME280_humidity;BME280_pressure;Samples;Min_cycle;Max_cycle;Signal;HPM_P1;HPM_P2
2023/06/25 00:00:56;;;;;;;10.32;9.23;;;18.90;99.90;;;;;;5016695;28;20074;-78
2023/06/25 00:03:22;;;;;;;10.10;9.02;;;18.70;99.90;;;;;;5002659;28;20060;-79
2023/06/25 00:05:48;;;;;;;11.48;9.73;;;18.70;99.90;;;;;;5028496;28;20071;-79
2023/06/25 00:08:14;;;;;;;10.95;9.60;;;18.60;99.90;;;;;;5032628;28;20072;-77
2023/06/25 00:10:41;;;;;;;11.68;10.13;;;18.40;99.90;;;;;;5029447;28;20068;-78
2023/06/25 00:13:07;;;;;;;13.30;10.63;;;18.40;99.90;;;;;;5018912;28;20036;-79
2023/06/25 00:15:33;;;;;;;13.43;10.27;;;18.40;99.90;;;;;;5027899;28;20450;-79
2023/06/25 00:17:58;;;;;;;13.68;11.27;;;18.40;99.90;;;;;;5042326;28;20560;-79
2023/06/25 00:20:24;;;;;;;11.55;10.18;;;18.30;99.90;;;;;;5002517;28;20060;-79
2023/06/25 00:22:50;;;;;;;11.27;10.10;;;18.40;99.90;;;;;;5036243;28;20037;-80
2023/06/25 00:25:17;;;;;;;11.88;10.65;;;18.30;99.90;;;;;;5030244;28;20605;-79
2023/06/25 00:27:49;;;;;;;12.02;10.68;;;18.30;99.90;;;;;;5012617;28;20479;-79
2023/06/25 00:30:15;;;;;;;12.25;10.30;;;18.40;99.90;;;;;;5026899;28;20575;-77
2023/06/25 00:32:42;;;;;;;14.70;10.98;;;18.40;99.90;;;;;;5011909;28;20115;-82
2023/06/25 00:35:09;;;;;;;12.35;10.18;;;18.40;99.90;;;;;;5049164;28;20531;-80
2023/06/25 00:37:36;;;;;;;9.73;8.73;;;18.40;99.90;;;;;;5033096;28;20033;-75
2023/06/25 00:40:04;;;;;;;9.65;8.35;;;18.30;99.90;;;;;;5015864;28;20043;-81
2023/06/25 00:42:42;;;;;;;7.90;6.85;;;18.10;99.90;;;;;;5049925;28;20144;-78
2023/06/25 00:45:12;;;;;;;12.18;10.48;;;18.00;99.90;;;;;;5034160;28;20082;-80
2023/06/25 00:47:41;;;;;;;16.98;12.90;;;17.90;99.90;;;;;;5031658;28;20063;-79
2023/06/25 00:50:12;;;;;;;12.90;11.43;;;17.90;99.90;;;;;;5045109;28;20041;-80
2023/06/25 00:52:39;;;;;;;12.70;10.57;;;17.80;99.90;;;;;;5039361;28;20045;-80
2023/06/25 00:55:08;;;;;;;10.63;9.52;;;17.80;99.90;;;;;;5040588;28;20508;-75
2023/06/25 00:57:34;;;;;;;11.38;9.32;;;17.70;99.90;;;;;;5044866;28;20063;-79
2023/06/25 01:00:00;;;;;;;14.38;10.93;;;17.50;99.90;;;;;;5044963;28;20485;-77
2023/06/25 01:02:46;;;;;;;11.50;9.90;;;17.60;99.90;;;;;;5012845;28;20144;-76
2023/06/25 01:05:45;;;;;;;9.82;8.85;;;17.60;99.90;;;;;;5030838;28;20389;-78
2023/06/25 01:08:11;;;;;;;13.00;10.00;;;17.70;99.90;;;;;;5052400;28;20040;-78
2023/06/25 01:10:38;;;;;;;11.75;9.77;;;17.70;99.90;;;;;;5055457;28;20362;-80
2023/06/25 01:13:05;;;;;;;12.05;10.75;;;17.90;99.90;;;;;;5042965;28;20045;-75
2023/06/25 01:15:31;;;;;;;11.07;9.98;;;17.90;99.90;;;;;;5046157;28;20045;-77
2023/06/25 01:17:57;;;;;;;11.95;9.77;;;17.90;99.90;;;;;;5019469;28;20061;-77
2023/06/25 01:20:27;;;;;;;10.68;9.40;;;17.80;99.90;;;;;;5026918;28;20438;-79
2023/06/25 01:22:57;;;;;;;11.15;9.73;;;17.80;99.90;;;;;;5018092;28;20731;-83
2023/06/25 01:25:24;;;;;;;13.65;10.30;;;17.80;99.90;;;;;;5028850;28;20041;-80
2023/06/25 01:27:51;;;;;;;13.63;10.93;;;18.00;99.90;;;;;;5029793;28;20049;-76
2023/06/25 01:30:17;;;;;;;11.30;9.90;;;17.90;99.90;;;;;;5030908;28;20475;-78
2023/06/25 01:32:46;;;;;;;12.43;10.35;;;18.00;99.90;;;;;;5032218;28;20048;-77
2023/06/25 01:35:14;;;;;;;13.93;11.55;;;18.00;99.90;;;;;;5055948;28;20088;-75
2023/06/25 01:37:40;;;;;;;16.17;11.15;;;18.00;99.90;;;;;;5049030;28;20052;-80
2023/06/25 01:40:07;;;;;;;12.35;10.63;;;18.10;99.90;;;;;;5050762;28;20033;-81
2023/06/25 01:42:34;;;;;;;12.70;10.52;;;18.10;99.90;;;;;;5031334;28;20131;-80
2023/06/25 01:44:59;;;;;;;13.30;11.30;;;18.00;99.90;;;;;;5029085;28;20052;-81
2023/06/25 01:47:26;;;;;;;13.43;12.02;;;18.00;99.90;;;;;;5011547;28;20041;-77
2023/06/25 01:49:51;;;;;;;15.48;11.85;;;18.10;99.90;;;;;;5029673;28;20078;-77
2023/06/25 01:52:17;;;;;;;14.90;11.75;;;18.20;99.90;;;;;;5031466;28;20048;-80
2023/06/25 01:54:42;;;;;;;14.35;11.40;;;18.20;99.90;;;;;;5011293;28;20069;-78
2023/06/25 01:57:08;;;;;;;14.30;11.40;;;18.20;99.90;;;;;;5037459;28;20041;-79
2023/06/25 01:59:34;;;;;;;13.20;11.80;;;18.30;99.90;;;;;;5030948;28;20125;-78
2023/06/25 02:02:03;;;;;;;14.50;11.60;;;18.20;99.90;;;;;;5035652;28;20392;-79
2023/06/25 02:04:29;;;;;;;18.95;13.38;;;18.20;99.90;;;;;;5039536;28;20444;-80
2023/06/25 02:06:54;;;;;;;13.15;11.88;;;18.20;99.90;;;;;;5046732;28;20032;-79
2023/06/25 02:09:21;;;;;;;13.27;11.10;;;18.20;99.90;;;;;;5045035;28;20048;-77
2023/06/25 02:11:46;;;;;;;12.68;11.38;;;18.10;99.90;;;;;;5030269;28;20037;-77
2023/06/25 02:14:12;;;;;;;16.80;12.13;;;18.10;99.90;;;;;;5014224;28;20106;-81
2023/06/25 02:16:38;;;;;;;16.08;12.95;;;18.10;99.90;;;;;;5052851;28;20592;-80
2023/06/25 02:19:04;;;;;;;14.68;12.73;;;18.10;99.90;;;;;;5026995;28;20084;-82
2023/06/25 02:21:29;;;;;;;14.93;12.45;;;18.10;99.90;;;;;;5046731;28;20550;-78
2023/06/25 02:23:55;;;;;;;13.57;12.05;;;18.10;99.90;;;;;;5045525;28;20033;-80
2023/06/25 02:26:21;;;;;;;14.50;12.73;;;18.20;99.90;;;;;;5030422;28;20477;-78
2023/06/25 02:28:47;;;;;;;14.52;12.35;;;18.10;99.90;;;;;;5046250;28;20096;-80
2023/06/25 02:31:14;;;;;;;15.60;12.52;;;18.10;99.90;;;;;;5043792;28;20037;-84
2023/06/25 02:33:39;;;;;;;15.73;12.48;;;18.10;99.90;;;;;;5025371;28;20388;-78
2023/06/25 02:36:05;;;;;;;17.40;13.07;;;18.10;99.90;;;;;;4995494;28;20041;-81
2023/06/25 02:38:31;;;;;;;13.57;12.10;;;18.10;99.90;;;;;;5030010;28;20041;-79
2023/06/25 02:40:57;;;;;;;14.63;12.85;;;18.00;99.90;;;;;;5038515;28;20032;-80
2023/06/25 02:43:23;;;;;;;14.05;12.43;;;18.10;99.90;;;;;;5036035;28;20053;-78
2023/06/25 02:45:49;;;;;;;16.02;13.57;;;18.00;99.90;;;;;;5019981;28;20036;-78
2023/06/25 02:48:14;;;;;;;14.45;12.90;;;18.00;99.90;;;;;;5015622;28;20048;-80
2023/06/25 02:50:40;;;;;;;16.75;13.43;;;18.10;99.90;;;;;;5031206;28;20053;-78
2023/06/25 02:53:06;;;;;;;15.88;12.77;;;18.00;99.90;;;;;;5052567;28;20047;-81
2023/06/25 02:55:31;;;;;;;14.52;12.40;;;17.90;99.90;;;;;;5011226;28;20132;-82
2023/06/25 02:57:57;;;;;;;14.02;12.55;;;17.90;99.90;;;;;;5032261;28;20041;-81
2023/06/25 03:00:23;;;;;;;12.70;11.35;;;17.90;99.90;;;;;;5008735;28;20501;-82
2023/06/25 03:02:48;;;;;;;14.65;11.95;;;17.80;99.90;;;;;;5064971;28;20041;-76
2023/06/25 03:05:14;;;;;;;16.27;12.57;;;17.90;99.90;;;;;;5048085;28;20119;-82
2023/06/25 03:07:54;;;;;;;13.55;11.70;;;17.90;99.90;;;;;;5054417;28;20102;-80
2023/06/25 03:10:27;;;;;;;16.55;13.32;;;17.80;99.90;;;;;;5044045;28;20045;-83
2023/06/25 03:12:52;;;;;;;17.45;14.30;;;17.80;99.90;;;;;;5049069;28;20044;-78
2023/06/25 03:15:18;;;;;;;14.00;12.35;;;17.90;99.90;;;;;;5066920;28;20413;-79
2023/06/25 03:17:44;;;;;;;16.05;12.82;;;17.70;99.90;;;;;;5022928;28;20037;-78
2023/06/25 03:20:11;;;;;;;15.40;13.70;;;17.80;99.90;;;;;;5031873;28;20049;-80
2023/06/25 03:22:37;;;;;;;15.95;12.95;;;17.90;99.90;;;;;;5029086;28;20416;-83
2023/06/25 03:25:03;;;;;;;15.48;12.98;;;17.90;99.90;;;;;;5021156;28;20038;-79
2023/06/25 03:27:30;;;;;;;15.85;13.05;;;17.80;99.90;;;;;;5030196;28;20435;-77
2023/06/25 03:29:56;;;;;;;14.52;12.93;;;17.90;99.90;;;;;;5030071;28;20041;-79
2023/06/25 03:32:22;;;;;;;16.83;13.63;;;17.90;99.90;;;;;;4998494;28;20459;-81
2023/06/25 03:34:48;;;;;;;13.75;12.35;;;17.90;99.90;;;;;;5028474;28;20059;-78
2023/06/25 03:37:13;;;;;;;14.60;12.73;;;17.90;99.90;;;;;;5022202;28;20040;-79
2023/06/25 03:39:39;;;;;;;14.55;12.95;;;17.90;99.90;;;;;;5034306;28;20243;-83
2023/06/25 03:42:05;;;;;;;15.25;12.77;;;17.90;99.90;;;;;;5012432;28;20235;-79
2023/06/25 03:44:31;;;;;;;15.40;12.57;;;17.90;99.90;;;;;;5012227;28;20921;-80
2023/06/25 03:46:57;;;;;;;15.60;12.93;;;17.90;99.90;;;;;;5025068;28;20060;-78
2023/06/25 03:49:22;;;;;;;14.15;12.20;;;17.90;99.90;;;;;;5014576;28;20103;-80
2023/06/25 03:51:48;;;;;;;17.20;13.23;;;18.00;99.90;;;;;;5050425;28;20432;-80
2023/06/25 03:54:13;;;;;;;14.10;12.50;;;17.90;99.90;;;;;;5047892;28;20045;-80
2023/06/25 03:56:39;;;;;;;13.98;12.48;;;18.00;99.90;;;;;;5044900;28;20059;-79
2023/06/25 03:59:05;;;;;;;14.63;12.43;;;18.10;99.90;;;;;;4995439;28;20759;-79
2023/06/25 04:01:30;;;;;;;15.40;12.93;;;18.00;99.90;;;;;;5030173;28;20065;-78
2023/06/25 04:03:56;;;;;;;13.73;12.18;;;18.10;99.90;;;;;;5054439;28;20139;-84
2023/06/25 04:06:22;;;;;;;15.30;12.52;;;18.00;99.90;;;;;;5031757;28;20036;-79
2023/06/25 04:08:47;;;;;;;16.58;12.52;;;18.00;99.90;;;;;;5012266;28;20073;-78
2023/06/25 04:11:13;;;;;;;15.00;12.20;;;18.10;99.90;;;;;;5012041;28;20057;-78
2023/06/25 04:13:39;;;;;;;16.40;12.90;;;18.00;99.90;;;;;;5041144;28;20055;-77
2023/06/25 04:16:07;;;;;;;13.82;11.93;;;18.00;99.90;;;;;;5030682;28;20037;-78
2023/06/25 04:18:32;;;;;;;14.73;12.07;;;18.10;99.90;;;;;;5012369;28;20471;-81
2023/06/25 04:20:58;;;;;;;13.80;12.30;;;18.10;99.90;;;;;;5030076;28;20040;-76
2023/06/25 04:23:24;;;;;;;15.65;13.45;;;18.10;99.90;;;;;;5047342;28;20045;-79
2023/06/25 04:25:49;;;;;;;16.45;12.95;;;18.10;99.90;;;;;;5032295;28;20402;-79
2023/06/25 04:28:16;;;;;;;15.30;12.55;;;18.10;99.90;;;;;;5048971;28;20041;-80
2023/06/25 04:30:42;;;;;;;14.82;12.80;;;18.20;99.90;;;;;;5011928;28;20053;-78
2023/06/25 04:33:08;;;;;;;18.58;13.48;;;18.30;99.90;;;;;;5046414;28;20055;-78
2023/06/25 04:35:33;;;;;;;18.00;12.95;;;18.30;99.90;;;;;;4995486;28;20049;-79
2023/06/25 04:37:59;;;;;;;15.77;12.40;;;18.30;99.90;;;;;;5061001;28;20388;-77
2023/06/25 04:40:25;;;;;;;19.02;12.88;;;18.40;99.90;;;;;;5047090;28;20063;-78
2023/06/25 04:42:51;;;;;;;15.35;12.15;;;18.40;99.90;;;;;;5034046;28;20032;-79
2023/06/25 04:45:17;;;;;;;16.95;12.68;;;18.40;99.90;;;;;;5018794;28;20385;-77
2023/06/25 04:47:42;;;;;;;14.38;12.07;;;18.40;99.90;;;;;;5022537;28;20044;-78
2023/06/25 04:50:09;;;;;;;14.05;11.82;;;18.40;99.90;;;;;;5033722;28;20029;-79
2023/06/25 04:52:34;;;;;;;15.40;12.35;;;18.50;99.90;;;;;;5015896;28;20033;-77
2023/06/25 04:55:00;;;;;;;14.45;12.20;;;18.60;99.90;;;;;;5041013;28;20048;-79
2023/06/25 04:57:25;;;;;;;12.95;11.30;;;18.60;99.90;;;;;;5058022;28;20342;-80
2023/06/25 04:59:51;;;;;;;14.68;12.02;;;18.60;99.90;;;;;;5042046;28;20378;-77
2023/06/25 05:02:17;;;;;;;14.00;12.25;;;18.70;99.90;;;;;;5056786;28;20036;-82
2023/06/25 05:04:43;;;;;;;15.60;12.40;;;18.70;99.90;;;;;;5040159;28;20036;-76
2023/06/25 05:07:09;;;;;;;15.07;12.13;;;18.70;99.90;;;;;;5019349;28;20041;-78
2023/06/25 05:09:35;;;;;;;14.80;12.88;;;18.80;99.90;;;;;;5054214;28;20120;-76
2023/06/25 05:12:00;;;;;;;15.60;12.25;;;19.00;99.90;;;;;;5030824;28;20033;-76
2023/06/25 05:14:27;;;;;;;13.52;11.38;;;19.00;99.90;;;;;;5033285;28;20120;-79
2023/06/25 05:16:53;;;;;;;15.38;11.90;;;19.00;99.90;;;;;;5048835;28;20248;-78
2023/06/25 05:19:18;;;;;;;13.05;11.38;;;19.10;99.90;;;;;;5049841;28;20477;-81
2023/06/25 05:21:44;;;;;;;12.70;11.40;;;19.20;99.90;;;;;;5032318;28;20048;-77
2023/06/25 05:24:10;;;;;;;14.15;11.55;;;19.30;99.90;;;;;;5033749;28;20754;-77
2023/06/25 05:26:36;;;;;;;13.30;11.68;;;19.30;99.90;;;;;;5016755;28;20088;-76
2023/06/25 05:29:02;;;;;;;16.85;12.18;;;19.40;99.90;;;;;;5046453;28;20064;-78
2023/06/25 05:31:28;;;;;;;13.82;11.32;;;19.40;99.90;;;;;;5033704;28;20037;-77
2023/06/25 05:33:54;;;;;;;14.55;11.65;;;19.50;99.90;;;;;;5064261;28;20048;-79
2023/06/25 05:36:21;;;;;;;13.82;11.10;;;19.60;99.90;;;;;;5049532;28;20366;-81
2023/06/25 05:38:47;;;;;;;13.52;11.10;;;19.60;99.90;;;;;;5048546;28;20049;-76
2023/06/25 05:41:13;;;;;;;12.57;10.90;;;19.60;99.90;;;;;;5017375;28;20037;-77
2023/06/25 05:43:39;;;;;;;11.98;10.23;;;19.80;99.90;;;;;;5047050;28;20039;-77
2023/06/25 05:46:05;;;;;;;10.98;9.02;;;19.80;99.90;;;;;;5038796;28;20045;-77
2023/06/25 05:48:30;;;;;;;13.75;10.88;;;19.90;99.90;;;;;;5032376;28;20509;-77
2023/06/25 05:50:56;;;;;;;10.85;9.18;;;20.00;99.90;;;;;;5018109;28;20045;-77
2023/06/25 05:53:23;;;;;;;11.15;9.05;;;20.20;99.90;;;;;;5023720;28;20040;-77
2023/06/25 05:55:49;;;;;;;13.35;9.48;;;20.20;99.90;;;;;;5046631;28;20039;-76
2023/06/25 05:58:15;;;;;;;11.40;9.13;;;20.20;99.90;;;;;;5008196;28;20066;-76
2023/06/25 06:00:40;;;;;;;9.73;8.52;;;20.30;99.90;;;;;;5031326;28;20041;-79
2023/06/25 06:03:06;;;;;;;10.68;8.30;;;20.30;99.90;;;;;;5054540;28;20044;-77
2023/06/25 06:05:32;;;;;;;10.68;8.85;;;20.40;99.90;;;;;;5019955;28;20148;-78
2023/06/25 06:07:57;;;;;;;10.65;8.40;;;20.50;99.90;;;;;;5037142;28;20373;-76
2023/06/25 06:10:23;;;;;;;13.77;8.57;;;20.60;99.90;;;;;;5025216;28;20055;-76
2023/06/25 06:12:49;;;;;;;10.60;9.20;;;20.60;99.90;;;;;;5027801;28;20477;-78
2023/06/25 06:15:16;;;;;;;11.38;8.68;;;20.80;99.90;;;;;;5040038;28;20044;-77
2023/06/25 06:17:42;;;;;;;11.10;9.00;;;20.80;99.90;;;;;;5061479;28;20143;-77
2023/06/25 06:20:08;;;;;;;9.32;8.32;;;21.00;99.90;;;;;;5036281;28;20084;-78
2023/06/25 06:22:34;;;;;;;9.75;8.38;;;21.10;99.90;;;;;;5034419;28;20040;-79
2023/06/25 06:25:00;;;;;;;8.43;7.53;;;21.30;99.90;;;;;;5032800;28;20131;-80
2023/06/25 06:27:25;;;;;;;11.27;8.00;;;21.40;99.90;;;;;;5035103;28;20037;-79
2023/06/25 06:29:51;;;;;;;9.70;8.70;;;21.50;99.90;;;;;;5033443;28;20059;-76
2023/06/25 06:32:17;;;;;;;8.93;7.53;;;21.60;99.90;;;;;;5032852;28;20096;-80
2023/06/25 06:34:42;;;;;;;9.10;7.57;;;21.60;99.90;;;;;;5017078;28;20048;-77
2023/06/25 06:37:08;;;;;;;8.77;7.60;;;21.80;99.90;;;;;;5028791;28;20040;-77
2023/06/25 06:39:34;;;;;;;10.02;6.60;;;22.00;99.90;;;;;;5031069;28;20420;-75
2023/06/25 06:42:00;;;;;;;5.75;4.78;;;22.00;99.90;;;;;;5029280;28;20041;-76
2023/06/25 06:44:25;;;;;;;9.88;6.90;;;22.10;99.90;;;;;;5049038;28;20037;-80
2023/06/25 06:46:51;;;;;;;9.13;7.97;;;22.30;99.90;;;;;;5030839;28;20393;-78
2023/06/25 06:49:19;;;;;;;8.65;7.47;;;22.60;99.90;;;;;;5046546;28;20102;-77
2023/06/25 06:51:44;;;;;;;10.00;8.30;;;22.70;99.90;;;;;;5028544;28;20045;-75
2023/06/25 06:54:10;;;;;;;7.88;7.07;;;23.00;99.90;;;;;;5047091;28;20037;-77
2023/06/25 06:56:37;;;;;;;9.65;7.57;;;23.10;99.90;;;;;;5045519;28;20040;-76
2023/06/25 06:59:03;;;;;;;11.18;7.55;;;23.40;99.90;;;;;;5047154;28;20052;-76
2023/06/25 07:01:28;;;;;;;10.80;7.82;;;23.40;99.90;;;;;;5047932;28;20037;-76
2023/06/25 07:03:54;;;;;;;9.07;7.70;;;23.60;99.90;;;;;;5046087;28;20091;-77
2023/06/25 07:06:20;;;;;;;10.88;7.25;;;23.60;99.90;;;;;;5014153;28;20032;-77
2023/06/25 07:08:47;;;;;;;8.15;7.22;;;23.90;99.90;;;;;;5015225;28;20627;-79
2023/06/25 07:11:16;;;;;;;9.80;7.85;;;23.90;99.90;;;;;;5046898;28;20072;-77
2023/06/25 07:13:43;;;;;;;9.15;8.25;;;24.10;99.90;;;;;;5046122;28;20090;-78
2023/06/25 07:16:09;;;;;;;8.07;7.28;;;24.00;99.90;;;;;;5045913;28;20044;-78
2023/06/25 07:18:35;;;;;;;10.02;9.02;;;24.00;99.90;;;;;;5038267;28;20032;-76
2023/06/25 07:21:00;;;;;;;14.25;9.13;;;24.10;99.90;;;;;;5037582;28;20049;-76
2023/06/25 07:23:26;;;;;;;11.63;9.38;;;24.20;99.90;;;;;;5035569;28;20044;-78
2023/06/25 07:25:52;;;;;;;9.65;8.65;;;24.40;99.90;;;;;;5038593;28;20044;-77
2023/06/25 07:28:17;;;;;;;10.00;8.80;;;24.50;99.90;;;;;;5033025;28;20481;-76
2023/06/25 07:30:43;;;;;;;9.70;8.80;;;24.70;99.90;;;;;;5047778;28;20040;-74
2023/06/25 07:33:09;;;;;;;10.65;9.30;;;24.80;99.90;;;;;;5033828;28;20062;-74
2023/06/25 07:35:35;;;;;;;10.85;9.75;;;24.70;99.90;;;;;;5040305;28;20033;-75
2023/06/25 07:38:00;;;;;;;11.80;10.60;;;24.70;99.90;;;;;;5052835;28;20199;-76
2023/06/25 07:40:26;;;;;;;13.82;9.32;;;24.80;99.90;;;;;;5031147;28;20098;-75
2023/06/25 07:42:52;;;;;;;10.10;9.10;;;24.80;99.90;;;;;;5049504;28;20086;-76
2023/06/25 07:45:17;;;;;;;9.63;8.65;;;25.10;99.90;;;;;;5002901;28;20722;-75
2023/06/25 07:47:43;;;;;;;11.90;10.25;;;25.10;99.90;;;;;;5040054;28;20464;-74
2023/06/25 07:50:09;;;;;;;11.57;10.48;;;25.10;99.90;;;;;;5044708;28;20090;-75
2023/06/25 07:52:34;;;;;;;13.52;10.32;;;25.20;99.90;;;;;;5048712;28;20930;-73
2023/06/25 07:55:00;;;;;;;10.45;9.45;;;25.30;99.90;;;;;;5035031;28;21727;-76
2023/06/25 07:57:26;;;;;;;10.70;9.68;;;25.50;99.90;;;;;;5036888;28;20037;-77
2023/06/25 07:59:53;;;;;;;11.90;10.75;;;25.50;99.90;;;;;;5036256;28;20503;-76
2023/06/25 08:02:19;;;;;;;11.90;10.65;;;25.40;99.90;;;;;;5048477;28;20068;-75
2023/06/25 08:04:45;;;;;;;12.18;10.45;;;25.40;99.90;;;;;;5043759;28;20440;-77
2023/06/25 08:07:10;;;;;;;10.55;9.50;;;25.60;99.90;;;;;;5034423;28;20047;-79
2023/06/25 08:09:36;;;;;;;10.68;9.65;;;25.70;99.90;;;;;;5053503;28;20029;-74
2023/06/25 08:12:02;;;;;;;11.90;10.70;;;25.70;99.90;;;;;;5042079;28;20036;-75
2023/06/25 08:14:28;;;;;;;11.23;10.15;;;25.80;99.90;;;;;;5036358;28;20072;-78
2023/06/25 08:16:54;;;;;;;10.52;9.52;;;25.70;99.90;;;;;;5066111;28;20586;-76
2023/06/25 08:19:19;;;;;;;11.32;10.23;;;25.90;99.90;;;;;;5047522;28;20063;-74
2023/06/25 08:21:45;;;;;;;11.57;10.48;;;25.90;99.90;;;;;;5025696;28;20055;-76
2023/06/25 08:24:11;;;;;;;11.40;10.20;;;26.20;99.90;;;;;;5027895;28;20037;-76
2023/06/25 08:26:36;;;;;;;11.07;9.98;;;26.20;99.90;;;;;;5039657;28;20040;-76
2023/06/25 08:29:04;;;;;;;11.82;10.63;;;26.30;99.90;;;;;;5060346;28;20544;-76
2023/06/25 08:31:29;;;;;;;11.68;10.57;;;26.30;99.90;;;;;;5065237;28;20116;-76
2023/06/25 08:33:55;;;;;;;12.30;9.38;;;26.40;99.90;;;;;;5066718;28;20143;-80
2023/06/25 08:36:21;;;;;;;10.80;9.70;;;26.60;99.90;;;;;;5044795;28;20075;-76
2023/06/25 08:38:46;;;;;;;9.65;8.82;;;26.60;99.90;;;;;;5018703;28;20045;-75
2023/06/25 08:41:12;;;;;;;9.75;8.85;;;26.70;99.90;;;;;;5040209;28;20115;-75
2023/06/25 08:43:38;;;;;;;10.15;9.18;;;26.80;99.90;;;;;;5056289;28;20041;-75
2023/06/25 08:46:04;;;;;;;10.43;8.80;;;27.00;99.90;;;;;;5044786;28;20040;-75
2023/06/25 08:48:33;;;;;;;10.65;9.65;;;27.10;99.90;;;;;;5042450;28;20051;-74
2023/06/25 08:51:06;;;;;;;11.15;10.05;;;27.10;99.90;;;;;;5034506;28;20036;-74
2023/06/25 08:53:32;;;;;;;10.80;9.23;;;27.00;99.90;;;;;;5065648;28;20049;-75
2023/06/25 08:56:00;;;;;;;9.20;8.40;;;27.10;99.90;;;;;;5043866;28;20295;-75
2023/06/25 08:58:26;;;;;;;10.63;9.55;;;27.20;99.90;;;;;;5040858;28;20043;-73
2023/06/25 09:00:52;;;;;;;9.40;8.60;;;27.20;99.90;;;;;;5040897;28;20032;-73
2023/06/25 09:03:18;;;;;;;10.15;9.10;;;27.40;99.90;;;;;;5048842;28;20076;-73
2023/06/25 09:05:55;;;;;;;10.02;9.05;;;27.70;99.90;;;;;;5049122;28;20083;-74
2023/06/25 09:08:22;;;;;;;9.30;8.50;;;27.90;99.90;;;;;;5037487;28;20608;-74
2023/06/25 09:10:56;;;;;;;10.05;9.13;;;28.00;99.90;;;;;;5055803;28;20045;-74
2023/06/25 09:13:26;;;;;;;8.98;8.20;;;28.10;99.90;;;;;;5046420;28;20045;-73
2023/06/25 09:15:59;;;;;;;8.70;7.90;;;28.50;99.90;;;;;;5028036;28;20584;-76
2023/06/25 09:18:29;;;;;;;8.60;7.13;;;28.50;99.90;;;;;;5029886;28;20142;-75
2023/06/25 09:20:56;;;;;;;6.72;6.00;;;28.60;99.90;;;;;;5031833;28;21454;-72
2023/06/25 09:23:25;;;;;;;7.13;6.53;;;28.90;87.80;;;;;;5050812;28;20041;-75
2023/06/25 09:25:52;;;;;;;7.05;6.45;;;29.10;75.00;;;;;;5045431;28;20063;-71
2023/06/25 09:28:18;;;;;;;7.30;5.72;;;29.00;72.30;;;;;;5037070;28;20500;-71
2023/06/25 09:30:44;;;;;;;8.88;6.85;;;29.20;24.80;;;;;;5033703;28;20043;-75
2023/06/25 09:33:11;;;;;;;7.15;6.55;;;29.20;36.80;;;;;;5043514;28;20411;-72
2023/06/25 09:35:38;;;;;;;6.45;5.88;;;29.60;52.20;;;;;;5033303;28;20032;-72
2023/06/25 09:38:04;;;;;;;6.93;6.32;;;29.80;21.90;;;;;;5034982;28;20107;-72
2023/06/25 09:40:30;;;;;;;7.63;6.95;;;30.10;1.00;;;;;;5051698;28;20029;-72
2023/06/25 09:42:58;;;;;;;5.45;4.95;;;30.60;1.00;;;;;;5049370;28;20039;-71
2023/06/25 09:45:25;;;;;;;6.38;5.82;;;30.20;1.00;;;;;;5012980;28;20033;-72
2023/06/25 09:47:52;;;;;;;7.50;6.75;;;29.80;1.00;;;;;;5044584;28;20851;-73
2023/06/25 09:50:35;;;;;;;6.25;5.65;;;30.00;1.00;;;;;;5014200;28;20040;-73
2023/06/25 09:53:03;;;;;;;6.38;5.68;;;30.50;1.00;;;;;;5047092;28;20037;-74
2023/06/25 09:55:29;;;;;;;6.32;5.72;;;31.00;1.00;;;;;;5031781;28;20108;-73
2023/06/25 09:57:57;;;;;;;5.50;5.05;;;30.90;1.00;;;;;;5054145;28;20473;-74
2023/06/25 10:00:24;;;;;;;6.13;5.40;;;30.80;99.90;;;;;;5046879;28;20045;-74
2023/06/25 10:02:52;;;;;;;5.70;5.15;;;30.80;99.90;;;;;;5040321;28;20072;-74
2023/06/25 10:05:21;;;;;;;6.35;5.75;;;31.20;99.90;;;;;;5043225;28;20147;-74
2023/06/25 10:07:51;;;;;;;6.32;5.72;;;31.10;99.90;;;;;;5005141;28;20037;-74
2023/06/25 10:10:26;;;;;;;6.05;5.45;;;31.30;99.90;;;;;;5048701;28;20167;-75
2023/06/25 10:12:57;;;;;;;5.30;4.82;;;30.60;99.90;;;;;;5026160;28;20081;-74
2023/06/25 10:15:27;;;;;;;6.18;5.57;;;30.90;99.90;;;;;;5014922;28;20120;-76
2023/06/25 10:17:53;;;;;;;6.38;5.10;;;30.90;99.90;;;;;;5045103;28;20128;-78
2023/06/25 10:20:37;;;;;;;5.32;4.82;;;31.30;99.90;;;;;;5041172;28;20133;-76
2023/06/25 10:23:11;;;;;;;5.78;5.22;;;31.40;99.90;;;;;;5059327;28;20059;-76
2023/06/25 10:25:38;;;;;;;;;;;31.00;99.90;;;;;;5023663;28;20037;-76
2023/06/25 10:28:13;;;;;;;5.85;5.13;;;31.00;99.90;;;;;;5045508;28;20011;-76
2023/06/25 10:30:46;;;;;;;5.35;4.85;;;30.90;99.90;;;;;;5040926;28;20090;-74
2023/06/25 10:33:15;;;;;;;5.07;4.68;;;31.30;99.90;;;;;;5042770;28;20497;-75
2023/06/25 10:35:42;;;;;;;5.38;4.90;;;31.00;99.90;;;;;;5046539;28;20566;-74
2023/06/25 10:38:11;;;;;;;4.53;4.18;;;31.10;99.90;;;;;;5034409;28;20075;-73
2023/06/25 10:40:39;;;;;;;4.90;4.40;;;31.10;99.90;;;;;;5010393;28;20513;-75
2023/06/25 10:43:06;;;;;;;4.32;3.92;;;30.80;99.90;;;;;;5030025;28;20456;-74
2023/06/25 10:45:32;;;;;;;4.85;4.45;;;30.70;99.90;;;;;;5027651;28;20712;-75
2023/06/25 10:48:10;;;;;;;5.03;4.53;;;31.10;99.90;;;;;;5046954;28;20428;-73
2023/06/25 10:50:36;;;;;;;4.35;3.95;;;31.10;99.90;;;;;;5030662;28;20493;-75
2023/06/25 10:53:04;;;;;;;4.75;4.03;;;31.20;99.90;;;;;;5046191;28;20084;-77
2023/06/25 10:55:30;;;;;;;4.68;4.28;;;31.20;99.90;;;;;;5045051;28;20047;-76
2023/06/25 10:57:56;;;;;;;4.40;4.00;;;31.30;99.90;;;;;;5010496;28;20057;-74
2023/06/25 11:00:23;;;;;;;4.85;4.45;;;31.40;99.90;;;;;;5047984;28;20136;-76
2023/06/25 11:02:51;;;;;;;4.30;3.85;;;31.60;99.90;;;;;;5046272;28;20044;-74
2023/06/25 11:05:18;;;;;;;4.10;3.80;;;31.50;99.90;;;;;;5028418;28;20048;-77
2023/06/25 11:07:43;;;;;;;4.05;3.75;;;31.70;99.90;;;;;;5032384;28;20049;-74
2023/06/25 11:10:09;;;;;;;5.30;3.95;;;31.40;99.90;;;;;;5030652;28;20078;-76
2023/06/25 11:12:35;;;;;;;4.10;3.70;;;31.30;99.90;;;;;;5046699;28;20037;-74
2023/06/25 11:15:01;;;;;;;4.53;3.90;;;31.60;99.90;;;;;;5031892;28;20109;-76
2023/06/25 11:17:26;;;;;;;4.18;3.53;;;31.40;99.90;;;;;;5027935;28;20398;-74
2023/06/25 11:19:53;;;;;;;3.83;3.53;;;31.60;99.90;;;;;;5046101;28;20053;-75
2023/06/25 11:22:20;;;;;;;4.35;3.75;;;32.10;99.90;;;;;;5058737;28;20904;-75
2023/06/25 11:24:46;;;;;;;4.38;3.97;;;32.10;99.90;;;;;;5047267;28;20106;-77
2023/06/25 11:27:12;;;;;;;4.38;3.92;;;31.70;99.90;;;;;;5031923;28;20039;-76
2023/06/25 11:29:39;;;;;;;3.88;3.28;;;32.30;99.90;;;;;;5048162;28;20120;-75
2023/06/25 11:32:08;;;;;;;4.28;3.88;;;32.20;99.90;;;;;;5045202;28;20124;-76
2023/06/25 11:34:43;;;;;;;5.15;3.85;;;32.00;99.90;;;;;;5015357;28;20051;-77
2023/06/25 11:37:14;;;;;;;4.95;3.63;;;32.50;99.90;;;;;;5031189;28;20086;-76
2023/06/25 11:39:47;;;;;;;8.68;4.10;;;32.30;99.90;;;;;;5048035;28;20065;-75
2023/06/25 11:42:21;;;;;;;4.20;3.90;;;32.80;99.90;;;;;;5045746;28;20048;-78
2023/06/25 11:45:04;;;;;;;4.25;3.90;;;32.80;99.90;;;;;;5045028;28;20116;-76
2023/06/25 11:47:30;;;;;;;3.63;3.33;;;32.70;99.90;;;;;;5028868;28;20091;-77
2023/06/25 11:49:57;;;;;;;3.60;3.30;;;32.40;99.90;;;;;;5045179;28;20591;-77
2023/06/25 11:52:23;;;;;;;5.85;4.10;;;32.00;99.90;;;;;;5049308;28;20058;-78
2023/06/25 11:54:49;;;;;;;4.40;4.00;;;32.20;99.90;;;;;;5037172;28;20041;-75
2023/06/25 11:57:17;;;;;;;4.72;3.90;;;32.80;99.90;;;;;;5035354;28;20365;-79
2023/06/25 11:59:43;;;;;;;4.22;3.92;;;32.70;99.90;;;;;;5030333;28;20491;-78
2023/06/25 12:02:09;;;;;;;5.43;4.18;;;32.70;99.90;;;;;;5029474;28;20036;-78
2023/06/25 12:04:38;;;;;;;4.97;4.50;;;32.20;99.90;;;;;;5030368;28;20556;-79
2023/06/25 12:07:04;;;;;;;4.38;3.97;;;32.00;99.90;;;;;;5044074;28;20045;-77
2023/06/25 12:09:29;;;;;;;4.00;3.70;;;32.10;99.90;;;;;;5039268;28;20045;-78
2023/06/25 12:11:55;;;;;;;4.65;4.13;;;32.60;99.90;;;;;;5043558;28;20070;-77
2023/06/25 12:14:21;;;;;;;4.25;3.85;;;32.20;99.90;;;;;;5043283;28;20084;-77
2023/06/25 12:16:47;;;;;;;4.43;4.03;;;32.00;99.90;;;;;;5053651;28;20038;-78
2023/06/25 12:19:13;;;;;;;4.53;4.13;;;32.40;99.90;;;;;;5048617;28;20404;-78
2023/06/25 12:21:38;;;;;;;4.43;4.03;;;32.70;99.90;;;;;;5039920;28;20049;-78
2023/06/25 12:24:04;;;;;;;4.57;4.18;;;32.60;99.90;;;;;;5022669;28;20033;-76
2023/06/25 12:26:30;;;;;;;5.45;4.00;;;32.80;99.90;;;;;;5024153;28;20406;-77
2023/06/25 12:28:56;;;;;;;4.10;3.80;;;32.70;99.90;;;;;;5043535;28;20029;-79
2023/06/25 12:31:22;;;;;;;4.43;4.10;;;33.10;99.90;;;;;;5042467;28;20041;-76
2023/06/25 12:33:48;;;;;;;4.45;4.05;;;33.00;99.90;;;;;;5043076;28;20070;-77